sensor_id;sensor_type;location;lat;lon;timestamp;P1;durP1;ratioP1;P2;durP2;ratioP2
2618;SDS011;1319;52.346;13.096;2023-10-19T00:01:06;24.07;;;14.07;;
2618;SDS011;1319;52.346;13.096;2023-10-19T00:03:31;24.03;;;13.93;;
2618;SDS011;1319;52.346;13.096;2023-10-19T00:05:57;31.93;;;13.40;;
2618;SDS011;1319;52.346;13.096;2023-10-19T00:08:22;28.60;;;14.67;;
2618;SDS011;1319;52.346;13.096;2023-10-19T00:10:49;24.33;;;14.70;;
2618;SDS011;1319;52.346;13.096;2023-10-19T00:13:46;22.83;;;13.53;;
2618;SDS011;1319;52.346;13.096;2023-10-19T00:16:14;23.43;;;13.80;;
2618;SDS011;1319;52.346;13.096;2023-10-19T00:18:44;26.73;;;13.80;;
2618;SDS011;1319;52.346;13.096;2023-10-19T00:21:13;23.33;;;13.23;;
2618;SDS011;1319;52.346;13.096;2023-10-19T00:23:44;28.60;;;15.43;;
2618;SDS011;1319;52.346;13.096;2023-10-19T00:26:12;26.37;;;14.60;;
2618;SDS011;1319;52.346;13.096;2023-10-19T00:28:45;30.43;;;14.97;;
2618;SDS011;1319;52.346;13.096;2023-10-19T00:31:12;25.63;;;14.50;;
2618;SDS011;1319;52.346;13.096;2023-10-19T00:33:38;26.20;;;14.23;;
2618;SDS011;1319;52.346;13.096;2023-10-19T00:36:07;25.37;;;13.50;;
2618;SDS011;1319;52.346;13.096;2023-10-19T00:38:33;24.17;;;14.23;;
2618;SDS011;1319;52.346;13.096;2023-10-19T00:40:58;28.07;;;14.53;;
2618;SDS011;1319;52.346;13.096;2023-10-19T00:43:29;24.70;;;14.63;;
2618;SDS011;1319;52.346;13.096;2023-10-19T00:45:57;25.53;;;13.87;;
2618;SDS011;1319;52.346;13.096;2023-10-19T00:48:22;24.17;;;14.13;;
2618;SDS011;1319;52.346;13.096;2023-10-19T00:50:51;26.70;;;14.30;;
2618;SDS011;1319;52.346;13.096;2023-10-19T00:53:19;24.23;;;13.93;;
2618;SDS011;1319;52.346;13.096;2023-10-19T00:55:44;24.00;;;14.13;;
2618;SDS011;1319;52.346;13.096;2023-10-19T00:58:10;25.33;;;13.67;;
2618;SDS011;1319;52.346;13.096;2023-10-19T01:00:39;24.70;;;14.10;;
2618;SDS011;1319;52.346;13.096;2023-10-19T01:03:09;28.80;;;14.37;;
2618;SDS011;1319;52.346;13.096;2023-10-19T01:05:35;25.17;;;14.93;;
2618;SDS011;1319;52.346;13.096;2023-10-19T01:08:01;27.67;;;15.17;;
2618;SDS011;1319;52.346;13.096;2023-10-19T01:10:28;27.70;;;14.50;;
2618;SDS011;1319;52.346;13.096;2023-10-19T01:12:54;24.70;;;14.23;;
2618;SDS011;1319;52.346;13.096;2023-10-19T01:15:22;22.83;;;13.70;;
2618;SDS011;1319;52.346;13.096;2023-10-19T01:17:54;24.70;;;13.90;;
2618;SDS011;1319;52.346;13.096;2023-10-19T01:20:24;26.17;;;13.47;;
2618;SDS011;1319;52.346;13.096;2023-10-19T01:22:55;27.67;;;14.90;;
2618;SDS011;1319;52.346;13.096;2023-10-19T01:25:41;26.70;;;13.57;;
2618;SDS011;1319;52.346;13.096;2023-10-19T01:28:27;24.50;;;13.70;;
2618;SDS011;1319;52.346;13.096;2023-10-19T01:31:12;25.87;;;13.20;;
2618;SDS011;1319;52.346;13.096;2023-10-19T01:33:41;27.77;;;13.60;;
2618;SDS011;1319;52.346;13.096;2023-10-19T01:36:07;27.73;;;14.27;;
2618;SDS011;1319;52.346;13.096;2023-10-19T01:38:36;26.80;;;13.83;;
2618;SDS011;1319;52.346;13.096;2023-10-19T01:41:02;29.60;;;14.70;;
2618;SDS011;1319;52.346;13.096;2023-10-19T01:43:31;27.23;;;14.17;;
2618;SDS011;1319;52.346;13.096;2023-10-19T01:45:56;28.43;;;14.73;;
2618;SDS011;1319;52.346;13.096;2023-10-19T01:48:22;26.80;;;14.57;;
2618;SDS011;1319;52.346;13.096;2023-10-19T01:50:59;24.03;;;14.03;;
2618;SDS011;1319;52.346;13.096;2023-10-19T01:53:24;26.67;;;13.80;;
2618;SDS011;1319;52.346;13.096;2023-10-19T01:55:50;30.00;;;14.43;;
2618;SDS011;1319;52.346;13.096;2023-10-19T01:58:22;24.70;;;14.20;;
2618;SDS011;1319;52.346;13.096;2023-10-19T02:00:50;25.93;;;13.30;;
2618;SDS011;1319;52.346;13.096;2023-10-19T02:03:15;28.43;;;14.97;;
2618;SDS011;1319;52.346;13.096;2023-10-19T02:05:41;26.13;;;14.47;;
2618;SDS011;1319;52.346;13.096;2023-10-19T02:08:08;26.20;;;15.30;;
2618;SDS011;1319;52.346;13.096;2023-10-19T02:10:36;28.40;;;14.10;;
2618;SDS011;1319;52.346;13.096;2023-10-19T02:13:02;27.97;;;15.10;;
2618;SDS011;1319;52.346;13.096;2023-10-19T02:15:32;26.03;;;14.07;;
2618;SDS011;1319;52.346;13.096;2023-10-19T02:17:59;27.13;;;14.60;;
2618;SDS011;1319;52.346;13.096;2023-10-19T02:20:26;25.57;;;14.13;;
2618;SDS011;1319;52.346;13.096;2023-10-19T02:22:52;27.43;;;14.33;;
2618;SDS011;1319;52.346;13.096;2023-10-19T02:25:17;25.77;;;13.97;;
2618;SDS011;1319;52.346;13.096;2023-10-19T02:27:43;31.60;;;15.30;;
2618;SDS011;1319;52.346;13.096;2023-10-19T02:30:10;26.97;;;14.50;;
2618;SDS011;1319;52.346;13.096;2023-10-19T02:32:36;27.87;;;15.23;;
2618;SDS011;1319;52.346;13.096;2023-10-19T02:35:02;30.23;;;15.37;;
2618;SDS011;1319;52.346;13.096;2023-10-19T02:37:28;29.20;;;14.80;;
2618;SDS011;1319;52.346;13.096;2023-10-19T02:39:53;31.23;;;15.10;;
2618;SDS011;1319;52.346;13.096;2023-10-19T02:42:18;27.23;;;14.67;;
2618;SDS011;1319;52.346;13.096;2023-10-19T02:44:46;25.23;;;14.30;;
2618;SDS011;1319;52.346;13.096;2023-10-19T02:47:11;29.83;;;15.23;;
2618;SDS011;1319;52.346;13.096;2023-10-19T02:49:37;21.37;;;13.37;;
2618;SDS011;1319;52.346;13.096;2023-10-19T02:52:04;26.00;;;14.73;;
2618;SDS011;1319;52.346;13.096;2023-10-19T02:54:30;27.67;;;14.73;;
2618;SDS011;1319;52.346;13.096;2023-10-19T02:56:58;29.63;;;15.43;;
2618;SDS011;1319;52.346;13.096;2023-10-19T02:59:24;29.20;;;14.53;;
2618;SDS011;1319;52.346;13.096;2023-10-19T03:01:53;28.23;;;14.80;;
2618;SDS011;1319;52.346;13.096;2023-10-19T03:04:26;30.67;;;15.20;;
2618;SDS011;1319;52.346;13.096;2023-10-19T03:06:53;31.23;;;15.80;;
2618;SDS011;1319;52.346;13.096;2023-10-19T03:09:19;28.90;;;14.67;;
2618;SDS011;1319;52.346;13.096;2023-10-19T03:11:53;32.07;;;16.13;;
2618;SDS011;1319;52.346;13.096;2023-10-19T03:14:25;34.67;;;15.30;;
2618;SDS011;1319;52.346;13.096;2023-10-19T03:16:50;32.00;;;15.07;;
2618;SDS011;1319;52.346;13.096;2023-10-19T03:19:15;29.93;;;14.80;;
2618;SDS011;1319;52.346;13.096;2023-10-19T03:21:41;30.30;;;15.03;;
2618;SDS011;1319;52.346;13.096;2023-10-19T03:24:09;28.67;;;14.93;;
2618;SDS011;1319;52.346;13.096;2023-10-19T03:26:39;28.93;;;15.80;;
2618;SDS011;1319;52.346;13.096;2023-10-19T03:29:13;31.47;;;16.00;;
2618;SDS011;1319;52.346;13.096;2023-10-19T03:31:40;31.87;;;15.00;;
2618;SDS011;1319;52.346;13.096;2023-10-19T03:34:12;31.37;;;16.17;;
2618;SDS011;1319;52.346;13.096;2023-10-19T03:36:38;29.67;;;15.90;;
2618;SDS011;1319;52.346;13.096;2023-10-19T03:39:04;28.87;;;15.70;;
2618;SDS011;1319;52.346;13.096;2023-10-19T03:41:39;29.00;;;14.63;;
2618;SDS011;1319;52.346;13.096;2023-10-19T03:44:07;28.03;;;14.97;;
2618;SDS011;1319;52.346;13.096;2023-10-19T03:46:38;28.47;;;15.07;;
2618;SDS011;1319;52.346;13.096;2023-10-19T03:49:03;30.03;;;15.53;;
2618;SDS011;1319;52.346;13.096;2023-10-19T03:51:38;29.53;;;15.80;;
2618;SDS011;1319;52.346;13.096;2023-10-19T03:54:23;27.20;;;15.70;;
2618;SDS011;1319;52.346;13.096;2023-10-19T03:56:50;33.03;;;16.17;;
2618;SDS011;1319;52.346;13.096;2023-10-19T03:59:17;27.20;;;15.13;;
2618;SDS011;1319;52.346;13.096;2023-10-19T04:01:43;32.27;;;15.73;;
2618;SDS011;1319;52.346;13.096;2023-10-19T04:04:09;28.60;;;16.10;;
2618;SDS011;1319;52.346;13.096;2023-10-19T04:06:34;29.63;;;16.57;;
2618;SDS011;1319;52.346;13.096;2023-10-19T04:08:59;28.27;;;15.17;;
2618;SDS011;1319;52.346;13.096;2023-10-19T04:11:24;31.87;;;15.53;;
2618;SDS011;1319;52.346;13.096;2023-10-19T04:13:57;31.53;;;16.10;;
2618;SDS011;1319;52.346;13.096;2023-10-19T04:16:24;32.43;;;16.27;;
2618;SDS011;1319;52.346;13.096;2023-10-19T04:18:49;27.73;;;16.13;;
2618;SDS011;1319;52.346;13.096;2023-10-19T04:21:15;31.57;;;15.50;;
2618;SDS011;1319;52.346;13.096;2023-10-19T04:23:40;31.83;;;15.60;;
2618;SDS011;1319;52.346;13.096;2023-10-19T04:26:05;33.83;;;15.70;;
2618;SDS011;1319;52.346;13.096;2023-10-19T04:28:36;35.20;;;16.67;;
2618;SDS011;1319;52.346;13.096;2023-10-19T04:31:20;30.67;;;16.00;;
2618;SDS011;1319;52.346;13.096;2023-10-19T04:33:48;27.27;;;15.87;;
2618;SDS011;1319;52.346;13.096;2023-10-19T04:36:14;29.17;;;16.97;;
2618;SDS011;1319;52.346;13.096;2023-10-19T04:38:40;30.53;;;15.53;;
2618;SDS011;1319;52.346;13.096;2023-10-19T04:41:09;32.30;;;16.10;;
2618;SDS011;1319;52.346;13.096;2023-10-19T04:43:35;30.63;;;16.30;;
2618;SDS011;1319;52.346;13.096;2023-10-19T04:46:04;32.00;;;16.57;;
2618;SDS011;1319;52.346;13.096;2023-10-19T04:48:34;36.37;;;17.77;;
2618;SDS011;1319;52.346;13.096;2023-10-19T04:51:00;35.53;;;16.60;;
2618;SDS011;1319;52.346;13.096;2023-10-19T04:53:26;40.57;;;18.07;;
2618;SDS011;1319;52.346;13.096;2023-10-19T04:55:51;36.23;;;17.43;;
2618;SDS011;1319;52.346;13.096;2023-10-19T04:58:16;33.63;;;17.47;;
2618;SDS011;1319;52.346;13.096;2023-10-19T05:00:42;31.93;;;17.10;;
2618;SDS011;1319;52.346;13.096;2023-10-19T05:03:07;38.50;;;17.93;;
2618;SDS011;1319;52.346;13.096;2023-10-19T05:05:33;37.27;;;18.63;;
2618;SDS011;1319;52.346;13.096;2023-10-19T05:08:01;35.13;;;18.53;;
2618;SDS011;1319;52.346;13.096;2023-10-19T05:10:26;34.83;;;18.53;;
2618;SDS011;1319;52.346;13.096;2023-10-19T05:12:52;34.30;;;19.43;;
2618;SDS011;1319;52.346;13.096;2023-10-19T05:15:20;41.10;;;20.80;;
2618;SDS011;1319;52.346;13.096;2023-10-19T05:17:45;37.43;;;19.73;;
2618;SDS011;1319;52.346;13.096;2023-10-19T05:20:10;38.43;;;20.37;;
2618;SDS011;1319;52.346;13.096;2023-10-19T05:22:38;41.33;;;21.27;;
2618;SDS011;1319;52.346;13.096;2023-10-19T05:25:04;39.93;;;20.10;;
2618;SDS011;1319;52.346;13.096;2023-10-19T05:27:29;42.67;;;20.00;;
2618;SDS011;1319;52.346;13.096;2023-10-19T05:29:54;40.13;;;20.83;;
2618;SDS011;1319;52.346;13.096;2023-10-19T05:32:20;38.63;;;20.70;;
2618;SDS011;1319;52.346;13.096;2023-10-19T05:34:46;41.60;;;20.47;;
2618;SDS011;1319;52.346;13.096;2023-10-19T05:37:14;42.97;;;21.87;;
2618;SDS011;1319;52.346;13.096;2023-10-19T05:39:41;38.30;;;19.97;;
2618;SDS011;1319;52.346;13.096;2023-10-19T05:42:07;40.97;;;21.20;;
2618;SDS011;1319;52.346;13.096;2023-10-19T05:44:32;43.50;;;22.33;;
2618;SDS011;1319;52.346;13.096;2023-10-19T05:46:57;41.03;;;21.30;;
2618;SDS011;1319;52.346;13.096;2023-10-19T05:49:23;39.13;;;19.97;;
2618;SDS011;1319;52.346;13.096;2023-10-19T05:51:49;44.53;;;21.47;;
2618;SDS011;1319;52.346;13.096;2023-10-19T05:54:14;44.87;;;22.93;;
2618;SDS011;1319;52.346;13.096;2023-10-19T05:56:40;40.13;;;21.83;;
2618;SDS011;1319;52.346;13.096;2023-10-19T05:59:05;44.53;;;22.97;;
2618;SDS011;1319;52.346;13.096;2023-10-19T06:01:31;39.23;;;21.40;;
2618;SDS011;1319;52.346;13.096;2023-10-19T06:03:57;43.43;;;22.93;;
2618;SDS011;1319;52.346;13.096;2023-10-19T06:06:22;41.60;;;22.80;;
2618;SDS011;1319;52.346;13.096;2023-10-19T06:08:48;47.07;;;23.40;;
2618;SDS011;1319;52.346;13.096;2023-10-19T06:11:14;39.93;;;21.33;;
2618;SDS011;1319;52.346;13.096;2023-10-19T06:13:39;38.97;;;22.23;;
2618;SDS011;1319;52.346;13.096;2023-10-19T06:16:05;45.00;;;22.80;;
2618;SDS011;1319;52.346;13.096;2023-10-19T06:18:30;43.87;;;22.50;;
2618;SDS011;1319;52.346;13.096;2023-10-19T06:20:56;45.57;;;23.10;;
2618;SDS011;1319;52.346;13.096;2023-10-19T06:23:21;46.03;;;23.50;;
2618;SDS011;1319;52.346;13.096;2023-10-19T06:25:47;49.30;;;23.07;;
2618;SDS011;1319;52.346;13.096;2023-10-19T06:28:12;48.00;;;24.37;;
2618;SDS011;1319;52.346;13.096;2023-10-19T06:30:38;41.67;;;23.37;;
2618;SDS011;1319;52.346;13.096;2023-10-19T06:33:05;42.73;;;22.97;;
2618;SDS011;1319;52.346;13.096;2023-10-19T06:35:30;43.07;;;22.30;;
2618;SDS011;1319;52.346;13.096;2023-10-19T06:38:01;46.77;;;23.50;;
2618;SDS011;1319;52.346;13.096;2023-10-19T06:40:28;47.67;;;22.50;;
2618;SDS011;1319;52.346;13.096;2023-10-19T06:42:57;42.67;;;21.97;;
2618;SDS011;1319;52.346;13.096;2023-10-19T06:45:23;41.40;;;22.77;;
2618;SDS011;1319;52.346;13.096;2023-10-19T06:47:50;40.73;;;21.80;;
2618;SDS011;1319;52.346;13.096;2023-10-19T06:50:17;42.50;;;23.67;;
2618;SDS011;1319;52.346;13.096;2023-10-19T06:52:43;43.17;;;22.57;;
2618;SDS011;1319;52.346;13.096;2023-10-19T06:55:09;45.87;;;23.93;;
2618;SDS011;1319;52.346;13.096;2023-10-19T06:57:51;43.63;;;23.43;;
2618;SDS011;1319;52.346;13.096;2023-10-19T07:00:18;50.47;;;23.33;;
2618;SDS011;1319;52.346;13.096;2023-10-19T07:02:50;44.33;;;23.33;;
2618;SDS011;1319;52.346;13.096;2023-10-19T07:05:16;45.07;;;24.00;;
2618;SDS011;1319;52.346;13.096;2023-10-19T07:07:54;47.63;;;24.53;;
2618;SDS011;1319;52.346;13.096;2023-10-19T07:10:21;42.07;;;22.13;;
2618;SDS011;1319;52.346;13.096;2023-10-19T07:12:48;40.27;;;22.27;;
2618;SDS011;1319;52.346;13.096;2023-10-19T07:15:14;46.40;;;23.93;;
2618;SDS011;1319;52.346;13.096;2023-10-19T07:17:40;44.10;;;23.13;;
2618;SDS011;1319;52.346;13.096;2023-10-19T07:20:05;48.33;;;22.83;;
2618;SDS011;1319;52.346;13.096;2023-10-19T07:22:32;44.03;;;22.30;;
2618;SDS011;1319;52.346;13.096;2023-10-19T07:24:57;43.20;;;23.33;;
2618;SDS011;1319;52.346;13.096;2023-10-19T07:27:22;44.37;;;23.87;;
2618;SDS011;1319;52.346;13.096;2023-10-19T07:29:48;44.33;;;23.47;;
2618;SDS011;1319;52.346;13.096;2023-10-19T07:32:13;43.30;;;24.93;;
2618;SDS011;1319;52.346;13.096;2023-10-19T07:34:41;49.63;;;24.23;;
2618;SDS011;1319;52.346;13.096;2023-10-19T07:37:07;51.53;;;25.90;;
2618;SDS011;1319;52.346;13.096;2023-10-19T07:39:33;45.40;;;24.13;;
2618;SDS011;1319;52.346;13.096;2023-10-19T07:42:00;44.53;;;23.50;;
2618;SDS011;1319;52.346;13.096;2023-10-19T07:44:25;43.77;;;23.90;;
2618;SDS011;1319;52.346;13.096;2023-10-19T07:46:51;44.80;;;24.50;;
2618;SDS011;1319;52.346;13.096;2023-10-19T07:49:16;50.97;;;24.43;;
2618;SDS011;1319;52.346;13.096;2023-10-19T07:51:45;44.57;;;24.23;;
2618;SDS011;1319;52.346;13.096;2023-10-19T07:54:11;44.10;;;23.63;;
2618;SDS011;1319;52.346;13.096;2023-10-19T07:56:37;44.40;;;24.67;;
2618;SDS011;1319;52.346;13.096;2023-10-19T07:59:02;50.57;;;24.73;;
2618;SDS011;1319;52.346;13.096;2023-10-19T08:01:27;43.97;;;23.23;;
2618;SDS011;1319;52.346;13.096;2023-10-19T08:03:53;50.40;;;24.50;;
2618;SDS011;1319;52.346;13.096;2023-10-19T08:06:18;42.67;;;23.73;;
2618;SDS011;1319;52.346;13.096;2023-10-19T08:08:44;48.10;;;24.30;;
2618;SDS011;1319;52.346;13.096;2023-10-19T08:11:09;45.70;;;24.63;;
2618;SDS011;1319;52.346;13.096;2023-10-19T08:13:34;42.93;;;24.17;;
2618;SDS011;1319;52.346;13.096;2023-10-19T08:16:00;44.23;;;23.53;;
2618;SDS011;1319;52.346;13.096;2023-10-19T08:18:25;46.43;;;25.03;;
2618;SDS011;1319;52.346;13.096;2023-10-19T08:20:50;45.00;;;24.43;;
2618;SDS011;1319;52.346;13.096;2023-10-19T08:23:15;47.37;;;24.80;;
2618;SDS011;1319;52.346;13.096;2023-10-19T08:25:48;44.87;;;24.20;;
2618;SDS011;1319;52.346;13.096;2023-10-19T08:28:16;43.77;;;23.77;;
2618;SDS011;1319;52.346;13.096;2023-10-19T08:30:41;46.93;;;25.27;;
2618;SDS011;1319;52.346;13.096;2023-10-19T08:33:06;47.83;;;24.30;;
2618;SDS011;1319;52.346;13.096;2023-10-19T08:35:34;44.87;;;24.93;;
2618;SDS011;1319;52.346;13.096;2023-10-19T08:38:00;46.90;;;24.03;;
2618;SDS011;1319;52.346;13.096;2023-10-19T08:40:29;47.13;;;23.83;;
2618;SDS011;1319;52.346;13.096;2023-10-19T08:42:54;45.13;;;25.20;;
2618;SDS011;1319;52.346;13.096;2023-10-19T08:45:20;45.47;;;24.23;;
2618;SDS011;1319;52.346;13.096;2023-10-19T08:47:56;43.50;;;24.17;;
2618;SDS011;1319;52.346;13.096;2023-10-19T08:50:25;45.47;;;25.10;;
2618;SDS011;1319;52.346;13.096;2023-10-19T08:52:55;46.73;;;26.13;;
2618;SDS011;1319;52.346;13.096;2023-10-19T08:55:20;47.63;;;24.70;;
2618;SDS011;1319;52.346;13.096;2023-10-19T08:57:46;45.60;;;24.97;;
2618;SDS011;1319;52.346;13.096;2023-10-19T09:00:14;46.50;;;24.73;;
2618;SDS011;1319;52.346;13.096;2023-10-19T09:02:42;48.10;;;25.27;;
2618;SDS011;1319;52.346;13.096;2023-10-19T09:05:08;48.43;;;24.97;;
2618;SDS011;1319;52.346;13.096;2023-10-19T09:07:34;46.03;;;25.23;;
2618;SDS011;1319;52.346;13.096;2023-10-19T09:09:59;51.80;;;26.67;;
2618;SDS011;1319;52.346;13.096;2023-10-19T09:12:26;48.03;;;25.53;;
2618;SDS011;1319;52.346;13.096;2023-10-19T09:14:52;48.17;;;26.93;;
2618;SDS011;1319;52.346;13.096;2023-10-19T09:17:19;52.70;;;27.13;;
2618;SDS011;1319;52.346;13.096;2023-10-19T09:19:52;44.47;;;24.87;;
2618;SDS011;1319;52.346;13.096;2023-10-19T09:22:18;48.03;;;25.60;;
2618;SDS011;1319;52.346;13.096;2023-10-19T09:24:44;47.10;;;25.33;;
2618;SDS011;1319;52.346;13.096;2023-10-19T09:27:10;44.13;;;24.73;;
2618;SDS011;1319;52.346;13.096;2023-10-19T09:29:35;43.97;;;23.77;;
2618;SDS011;1319;52.346;13.096;2023-10-19T09:32:01;49.77;;;23.33;;
2618;SDS011;1319;52.346;13.096;2023-10-19T09:34:29;45.30;;;24.53;;
2618;SDS011;1319;52.346;13.096;2023-10-19T09:36:57;42.87;;;24.23;;
2618;SDS011;1319;52.346;13.096;2023-10-19T09:39:22;48.43;;;26.10;;
2618;SDS011;1319;52.346;13.096;2023-10-19T09:41:49;48.80;;;25.77;;
2618;SDS011;1319;52.346;13.096;2023-10-19T09:44:15;42.60;;;24.77;;
2618;SDS011;1319;52.346;13.096;2023-10-19T09:46:43;46.07;;;25.27;;
2618;SDS011;1319;52.346;13.096;2023-10-19T09:49:09;44.77;;;24.40;;
2618;SDS011;1319;52.346;13.096;2023-10-19T09:51:38;50.87;;;25.77;;
2618;SDS011;1319;52.346;13.096;2023-10-19T09:54:26;43.63;;;24.30;;
2618;SDS011;1319;52.346;13.096;2023-10-19T09:56:55;49.40;;;25.70;;
2618;SDS011;1319;52.346;13.096;2023-10-19T09:59:26;45.63;;;25.13;;
2618;SDS011;1319;52.346;13.096;2023-10-19T10:02:04;44.10;;;24.37;;
2618;SDS011;1319;52.346;13.096;2023-10-19T10:04:30;47.50;;;25.67;;
2618;SDS011;1319;52.346;13.096;2023-10-19T10:09:21;46.30;;;26.07;;
2618;SDS011;1319;52.346;13.096;2023-10-19T10:11:49;47.43;;;25.43;;
2618;SDS011;1319;52.346;13.096;2023-10-19T10:14:24;43.10;;;24.77;;
2618;SDS011;1319;52.346;13.096;2023-10-19T10:16:59;50.00;;;27.03;;
2618;SDS011;1319;52.346;13.096;2023-10-19T10:19:26;45.07;;;25.70;;
2618;SDS011;1319;52.346;13.096;2023-10-19T10:22:04;46.77;;;26.13;;
2618;SDS011;1319;52.346;13.096;2023-10-19T10:24:39;45.63;;;26.40;;
2618;SDS011;1319;52.346;13.096;2023-10-19T10:27:04;52.37;;;27.97;;
2618;SDS011;1319;52.346;13.096;2023-10-19T10:29:30;49.87;;;26.33;;
2618;SDS011;1319;52.346;13.096;2023-10-19T10:31:56;53.03;;;27.93;;
2618;SDS011;1319;52.346;13.096;2023-10-19T10:37:01;44.97;;;25.67;;
2618;SDS011;1319;52.346;13.096;2023-10-19T10:39:30;49.33;;;26.93;;
2618;SDS011;1319;52.346;13.096;2023-10-19T10:41:59;46.27;;;26.63;;
2618;SDS011;1319;52.346;13.096;2023-10-19T10:44:44;47.50;;;26.43;;
2618;SDS011;1319;52.346;13.096;2023-10-19T10:47:10;42.57;;;25.57;;
2618;SDS011;1319;52.346;13.096;2023-10-19T10:49:48;48.83;;;26.03;;
2618;SDS011;1319;52.346;13.096;2023-10-19T10:52:23;44.47;;;24.77;;
2618;SDS011;1319;52.346;13.096;2023-10-19T10:54:49;45.80;;;24.80;;
2618;SDS011;1319;52.346;13.096;2023-10-19T10:57:14;36.70;;;22.73;;
2618;SDS011;1319;52.346;13.096;2023-10-19T10:59:39;40.37;;;22.43;;
2618;SDS011;1319;52.346;13.096;2023-10-19T11:02:16;43.23;;;22.73;;
2618;SDS011;1319;52.346;13.096;2023-10-19T11:04:45;37.60;;;22.03;;
2618;SDS011;1319;52.346;13.096;2023-10-19T11:07:17;36.37;;;23.43;;
2618;SDS011;1319;52.346;13.096;2023-10-19T11:09:44;45.93;;;23.57;;
2618;SDS011;1319;52.346;13.096;2023-10-19T11:12:10;42.07;;;24.77;;
2618;SDS011;1319;52.346;13.096;2023-10-19T11:14:35;44.37;;;24.83;;
2618;SDS011;1319;52.346;13.096;2023-10-19T11:17:13;39.57;;;24.33;;
2618;SDS011;1319;52.346;13.096;2023-10-19T11:19:41;38.63;;;23.43;;
2618;SDS011;1319;52.346;13.096;2023-10-19T11:22:09;37.80;;;21.83;;
2618;SDS011;1319;52.346;13.096;2023-10-19T11:24:34;34.97;;;21.30;;
2618;SDS011;1319;52.346;13.096;2023-10-19T11:27:05;35.97;;;21.13;;
2618;SDS011;1319;52.346;13.096;2023-10-19T11:29:30;33.90;;;20.67;;
2618;SDS011;1319;52.346;13.096;2023-10-19T11:31:59;32.73;;;20.70;;
2618;SDS011;1319;52.346;13.096;2023-10-19T11:34:24;32.27;;;19.13;;
2618;SDS011;1319;52.346;13.096;2023-10-19T11:36:53;30.10;;;19.40;;
2618;SDS011;1319;52.346;13.096;2023-10-19T11:39:21;31.27;;;18.90;;
2618;SDS011;1319;52.346;13.096;2023-10-19T11:41:48;32.80;;;19.87;;
2618;SDS011;1319;52.346;13.096;2023-10-19T11:44:13;34.00;;;20.30;;
2618;SDS011;1319;52.346;13.096;2023-10-19T11:46:39;29.07;;;18.90;;
2618;SDS011;1319;52.346;13.096;2023-10-19T11:49:04;36.13;;;18.77;;
2618;SDS011;1319;52.346;13.096;2023-10-19T11:51:29;32.80;;;19.60;;
2618;SDS011;1319;52.346;13.096;2023-10-19T11:53:56;34.23;;;21.27;;
2618;SDS011;1319;52.346;13.096;2023-10-19T11:56:21;33.67;;;20.77;;
2618;SDS011;1319;52.346;13.096;2023-10-19T11:58:47;33.93;;;20.60;;
2618;SDS011;1319;52.346;13.096;2023-10-19T12:01:12;37.30;;;21.17;;
2618;SDS011;1319;52.346;13.096;2023-10-19T12:03:37;34.70;;;19.40;;
2618;SDS011;1319;52.346;13.096;2023-10-19T12:06:04;33.63;;;20.57;;
2618;SDS011;1319;52.346;13.096;2023-10-19T12:08:31;30.27;;;19.23;;
2618;SDS011;1319;52.346;13.096;2023-10-19T12:10:57;35.20;;;20.57;;
2618;SDS011;1319;52.346;13.096;2023-10-19T12:13:22;34.60;;;21.57;;
2618;SDS011;1319;52.346;13.096;2023-10-19T12:15:49;33.03;;;20.03;;
2618;SDS011;1319;52.346;13.096;2023-10-19T12:18:20;36.93;;;21.33;;
2618;SDS011;1319;52.346;13.096;2023-10-19T12:20:46;36.13;;;20.77;;
2618;SDS011;1319;52.346;13.096;2023-10-19T12:23:12;31.80;;;20.30;;
2618;SDS011;1319;52.346;13.096;2023-10-19T12:25:37;31.40;;;20.10;;
2618;SDS011;1319;52.346;13.096;2023-10-19T12:28:03;36.40;;;20.43;;
2618;SDS011;1319;52.346;13.096;2023-10-19T12:30:29;37.50;;;20.60;;
2618;SDS011;1319;52.346;13.096;2023-10-19T12:33:00;31.60;;;19.80;;
2618;SDS011;1319;52.346;13.096;2023-10-19T12:35:26;31.83;;;19.67;;
2618;SDS011;1319;52.346;13.096;2023-10-19T12:38:09;34.03;;;20.03;;
2618;SDS011;1319;52.346;13.096;2023-10-19T12:40:40;34.97;;;20.27;;
2618;SDS011;1319;52.346;13.096;2023-10-19T12:43:06;36.83;;;21.30;;
2618;SDS011;1319;52.346;13.096;2023-10-19T12:45:32;36.23;;;20.20;;
2618;SDS011;1319;52.346;13.096;2023-10-19T12:48:02;33.23;;;20.43;;
2618;SDS011;1319;52.346;13.096;2023-10-19T12:50:27;36.13;;;20.17;;
2618;SDS011;1319;52.346;13.096;2023-10-19T12:52:53;35.07;;;21.10;;
2618;SDS011;1319;52.346;13.096;2023-10-19T12:55:21;39.97;;;21.07;;
2618;SDS011;1319;52.346;13.096;2023-10-19T12:57:46;36.47;;;20.30;;
2618;SDS011;1319;52.346;13.096;2023-10-19T13:00:11;37.63;;;20.87;;
2618;SDS011;1319;52.346;13.096;2023-10-19T13:02:50;42.50;;;21.10;;
2618;SDS011;1319;52.346;13.096;2023-10-19T13:05:16;37.63;;;22.20;;
2618;SDS011;1319;52.346;13.096;2023-10-19T13:07:44;40.20;;;20.83;;
2618;SDS011;1319;52.346;13.096;2023-10-19T13:10:09;34.70;;;21.23;;
2618;SDS011;1319;52.346;13.096;2023-10-19T13:12:36;39.30;;;22.73;;
2618;SDS011;1319;52.346;13.096;2023-10-19T13:15:01;38.27;;;22.23;;
2618;SDS011;1319;52.346;13.096;2023-10-19T13:17:27;36.57;;;21.97;;
2618;SDS011;1319;52.346;13.096;2023-10-19T13:19:52;38.27;;;21.57;;
2618;SDS011;1319;52.346;13.096;2023-10-19T13:22:20;40.57;;;21.73;;
2618;SDS011;1319;52.346;13.096;2023-10-19T13:24:46;35.47;;;20.93;;
2618;SDS011;1319;52.346;13.096;2023-10-19T13:27:12;37.30;;;22.07;;
2618;SDS011;1319;52.346;13.096;2023-10-19T13:29:37;40.30;;;22.30;;
2618;SDS011;1319;52.346;13.096;2023-10-19T13:32:05;38.23;;;23.40;;
2618;SDS011;1319;52.346;13.096;2023-10-19T13:34:30;42.73;;;23.60;;
2618;SDS011;1319;52.346;13.096;2023-10-19T13:36:55;40.47;;;23.40;;
2618;SDS011;1319;52.346;13.096;2023-10-19T13:39:22;45.27;;;24.67;;
2618;SDS011;1319;52.346;13.096;2023-10-19T13:41:50;45.53;;;24.93;;
2618;SDS011;1319;52.346;13.096;2023-10-19T13:44:16;43.90;;;24.13;;
2618;SDS011;1319;52.346;13.096;2023-10-19T13:46:43;46.40;;;24.87;;
2618;SDS011;1319;52.346;13.096;2023-10-19T13:49:10;47.07;;;25.63;;
2618;SDS011;1319;52.346;13.096;2023-10-19T13:51:36;43.07;;;25.03;;
2618;SDS011;1319;52.346;13.096;2023-10-19T13:54:01;46.57;;;26.03;;
2618;SDS011;1319;52.346;13.096;2023-10-19T13:56:26;46.13;;;26.37;;
2618;SDS011;1319;52.346;13.096;2023-10-19T13:58:52;48.63;;;26.63;;
2618;SDS011;1319;52.346;13.096;2023-10-19T14:01:17;44.30;;;25.43;;
2618;SDS011;1319;52.346;13.096;2023-10-19T14:03:43;45.10;;;24.90;;
2618;SDS011;1319;52.346;13.096;2023-10-19T14:06:14;45.43;;;26.40;;
2618;SDS011;1319;52.346;13.096;2023-10-19T14:08:39;40.93;;;23.43;;
2618;SDS011;1319;52.346;13.096;2023-10-19T14:11:05;41.90;;;24.30;;
2618;SDS011;1319;52.346;13.096;2023-10-19T14:13:31;43.93;;;25.83;;
2618;SDS011;1319;52.346;13.096;2023-10-19T14:15:56;42.97;;;25.07;;
2618;SDS011;1319;52.346;13.096;2023-10-19T14:18:22;44.67;;;25.00;;
2618;SDS011;1319;52.346;13.096;2023-10-19T14:20:47;42.57;;;25.60;;
2618;SDS011;1319;52.346;13.096;2023-10-19T14:23:13;40.20;;;23.87;;
2618;SDS011;1319;52.346;13.096;2023-10-19T14:25:38;43.37;;;24.70;;
2618;SDS011;1319;52.346;13.096;2023-10-19T14:28:08;43.00;;;24.60;;
2618;SDS011;1319;52.346;13.096;2023-10-19T14:30:34;44.13;;;25.17;;
2618;SDS011;1319;52.346;13.096;2023-10-19T14:33:00;43.70;;;23.93;;
2618;SDS011;1319;52.346;13.096;2023-10-19T14:35:25;44.70;;;24.47;;
2618;SDS011;1319;52.346;13.096;2023-10-19T14:37:51;40.93;;;23.50;;
2618;SDS011;1319;52.346;13.096;2023-10-19T14:40:21;44.03;;;24.97;;